createdAt,value
2018-09-12T00:00:21.481Z,3.77
2018-09-12T00:02:51.989Z,7.37
2018-09-12T00:05:22.674Z,4.73
2018-09-12T00:07:53.204Z,4.47
2018-09-12T00:10:23.794Z,5.50
2018-09-12T00:12:54.278Z,5.53
2018-09-12T00:15:24.901Z,4.67
2018-09-12T00:17:55.432Z,6.23
2018-09-12T00:20:26.366Z,5.10
2018-09-12T00:22:56.855Z,5.33
2018-09-12T00:25:27.426Z,5.03
2018-09-12T00:27:57.916Z,7.30
2018-09-12T00:30:28.399Z,4.90
2018-09-12T00:32:58.931Z,5.00
2018-09-12T00:35:29.487Z,5.23
2018-09-12T00:38:00.008Z,4.50
2018-09-12T00:40:30.602Z,3.60
2018-09-12T00:43:01.143Z,4.97
2018-09-12T00:45:31.799Z,3.97
2018-09-12T00:48:02.324Z,4.47
2018-09-12T00:50:32.925Z,6.07
2018-09-12T00:53:03.419Z,6.70
2018-09-12T00:55:33.951Z,7.70
2018-09-12T00:58:04.678Z,7.47
2018-09-12T01:00:35.274Z,3.27
2018-09-12T01:03:05.743Z,6.80
2018-09-12T01:05:40.678Z,7.23
2018-09-12T01:08:12.596Z,5.80
2018-09-12T01:10:43.179Z,5.87
2018-09-12T01:13:13.793Z,8.83
2018-09-12T01:15:44.338Z,7.57
2018-09-12T01:18:19.025Z,6.70
2018-09-12T01:20:50.992Z,5.70
2018-09-12T01:23:22.178Z,5.17
2018-09-12T01:25:52.799Z,5.13
2018-09-12T01:28:23.374Z,7.30
2018-09-12T01:30:53.956Z,6.57
2018-09-12T01:33:24.494Z,4.50
2018-09-12T01:35:55.137Z,6.27
2018-09-12T01:38:25.658Z,4.90
2018-09-12T01:40:56.548Z,6.43
2018-09-12T01:43:27.088Z,5.43
2018-09-12T01:45:57.687Z,7.43
2018-09-12T01:48:28.176Z,7.00
2018-09-12T01:50:58.708Z,6.13
2018-09-12T01:53:29.304Z,7.73
2018-09-12T01:55:59.819Z,6.30
2018-09-12T01:58:30.335Z,7.53
2018-09-12T02:01:01.233Z,4.23
2018-09-12T02:03:31.718Z,8.47
2018-09-12T02:06:02.238Z,3.73
2018-09-12T02:08:32.710Z,5.20
2018-09-12T02:11:03.258Z,4.73
2018-09-12T02:13:33.784Z,7.20
2018-09-12T02:16:04.379Z,6.50
2018-09-12T02:18:34.920Z,4.87
2018-09-12T02:21:05.515Z,4.97
2018-09-12T02:23:36.052Z,6.77
2018-09-12T02:26:06.709Z,6.03
2018-09-12T02:28:37.236Z,6.93
2018-09-12T02:31:07.941Z,6.23
2018-09-12T02:33:38.523Z,6.40
2018-09-12T02:36:28.494Z,5.83
2018-09-12T02:39:02.370Z,5.03
2018-09-12T02:41:32.839Z,6.93
2018-09-12T02:44:03.335Z,5.73
2018-09-12T02:46:33.927Z,5.67
2018-09-12T02:49:04.483Z,6.80
2018-09-12T02:51:35.098Z,4.43
2018-09-12T02:54:05.716Z,6.20
2018-09-12T02:56:36.239Z,6.83
2018-09-12T02:59:06.826Z,6.87
2018-09-12T03:01:37.476Z,8.27
2018-09-12T03:04:08.185Z,8.23
2018-09-12T03:06:38.834Z,4.57
2018-09-12T03:09:10.540Z,4.53
2018-09-12T03:11:41.094Z,6.97
2018-09-12T03:14:11.652Z,7.87
2018-09-12T03:16:42.183Z,5.97
2018-09-12T03:19:12.749Z,6.90
2018-09-12T03:21:43.504Z,5.70
2018-09-12T03:24:14.239Z,4.77
2018-09-12T03:26:44.840Z,4.60
2018-09-12T03:29:15.382Z,7.53
2018-09-12T03:31:45.992Z,5.90
2018-09-12T03:34:16.604Z,6.10
2018-09-12T03:36:51.165Z,5.70
2018-09-12T03:39:21.720Z,5.73
2018-09-12T03:41:52.400Z,6.63
2018-09-12T03:44:23.033Z,7.50
2018-09-12T03:46:53.646Z,10.53
2018-09-12T03:49:24.186Z,5.97
2018-09-12T03:51:54.824Z,7.13
2018-09-12T03:54:25.337Z,7.57
2018-09-12T03:56:55.901Z,6.77
2018-09-12T03:59:26.505Z,7.27
2018-09-12T04:01:57.202Z,6.13
2018-09-12T04:04:27.806Z,8.80
2018-09-12T04:06:58.410Z,7.33
2018-09-12T04:09:29.005Z,7.87
2018-09-12T04:11:59.689Z,4.80
2018-09-12T04:14:30.203Z,9.03
2018-09-12T04:17:02.497Z,6.47
2018-09-12T04:19:32.959Z,9.03
2018-09-12T04:22:04.091Z,6.57
2018-09-12T04:24:34.684Z,6.57
2018-09-12T04:27:05.477Z,10.00
2018-09-12T04:29:36.062Z,8.23
2018-09-12T04:32:06.753Z,8.90
2018-09-12T04:34:37.321Z,6.60
2018-09-12T04:37:08.172Z,8.77
2018-09-12T04:39:41.307Z,7.67
2018-09-12T04:42:13.017Z,7.53
2018-09-12T04:44:43.567Z,8.73
2018-09-12T04:47:14.292Z,6.77
2018-09-12T04:49:44.892Z,8.03
2018-09-12T04:52:15.419Z,9.47
2018-09-12T04:54:46.020Z,8.07
2018-09-12T04:57:16.624Z,8.87
2018-09-12T04:59:47.236Z,7.00
2018-09-12T05:02:17.902Z,6.13
2018-09-12T05:04:48.482Z,8.27
2018-09-12T05:07:19.050Z,7.43
2018-09-12T05:09:49.576Z,7.60
2018-09-12T05:12:20.144Z,10.40
2018-09-12T05:14:50.707Z,8.73
2018-09-12T05:17:21.234Z,10.53
2018-09-12T05:19:51.730Z,7.70
2018-09-12T05:22:22.402Z,8.73
2018-09-12T05:24:52.949Z,9.87
2018-09-12T05:27:23.534Z,9.07
2018-09-12T05:29:53.944Z,14.67
2018-09-12T05:32:24.427Z,6.97
2018-09-12T05:34:54.867Z,11.57
2018-09-12T05:37:25.393Z,14.53
2018-09-12T05:39:55.835Z,7.43
2018-09-12T05:42:26.333Z,9.17
2018-09-12T05:44:56.912Z,8.47
2018-09-12T05:47:28.597Z,7.90
2018-09-12T05:49:59.182Z,10.53
2018-09-12T05:52:29.752Z,10.20
2018-09-12T05:55:00.289Z,10.90
2018-09-12T05:57:30.856Z,9.40
2018-09-12T06:00:01.385Z,8.50
2018-09-12T06:02:31.842Z,10.47
2018-09-12T06:05:02.358Z,7.43
2018-09-12T06:07:32.895Z,8.90
2018-09-12T06:10:03.519Z,8.70
2018-09-12T06:12:34.180Z,9.90
2018-09-12T06:15:04.922Z,11.30
2018-09-12T06:17:35.563Z,9.93
2018-09-12T06:20:06.439Z,9.70
2018-09-12T06:22:37.249Z,9.83
2018-09-12T06:25:07.910Z,11.43
2018-09-12T06:27:38.464Z,10.30
2018-09-12T06:30:09.314Z,9.33
2018-09-12T06:32:40.049Z,9.53
2018-09-12T06:35:10.752Z,12.30
2018-09-12T06:37:41.393Z,13.70
2018-09-12T06:40:12.002Z,10.83
2018-09-12T06:42:42.622Z,11.63
2018-09-12T06:45:13.216Z,10.43
2018-09-12T06:47:43.773Z,8.20
2018-09-12T06:50:14.342Z,10.03
2018-09-12T06:52:44.892Z,7.53
2018-09-12T06:55:15.398Z,9.73
2018-09-12T06:57:46.049Z,8.33
2018-09-12T07:00:16.723Z,11.77
2018-09-12T07:02:47.401Z,11.87
2018-09-12T07:05:17.985Z,10.23
2018-09-12T07:07:48.927Z,17.13
2018-09-12T07:10:19.444Z,9.60
2018-09-12T07:12:49.991Z,13.67
2018-09-12T07:15:20.488Z,11.07
2018-09-12T07:17:51.111Z,13.20
2018-09-12T07:20:21.638Z,8.27
2018-09-12T07:22:52.207Z,10.97
2018-09-12T07:25:22.731Z,12.87
2018-09-12T07:27:53.429Z,13.30
2018-09-12T07:30:24.097Z,11.80
2018-09-12T07:32:54.831Z,10.80
2018-09-12T07:35:25.672Z,13.43
2018-09-12T07:37:56.509Z,11.60
2018-09-12T07:40:27.277Z,13.23
2018-09-12T07:42:58.072Z,11.53
2018-09-12T07:45:28.839Z,10.87
2018-09-12T07:47:59.416Z,11.63
2018-09-12T07:50:29.987Z,12.57
2018-09-12T07:53:00.643Z,11.30
2018-09-12T07:55:31.252Z,11.50
2018-09-12T07:58:01.989Z,13.50
2018-09-12T08:00:32.562Z,9.00
2018-09-12T08:03:03.166Z,9.90
2018-09-12T08:05:33.804Z,9.70
2018-09-12T08:08:04.467Z,11.97
2018-09-12T08:10:35.107Z,10.97
2018-09-12T08:13:05.724Z,11.87
2018-09-12T08:15:36.256Z,13.40
2018-09-12T08:18:07.083Z,11.93
2018-09-12T08:20:37.798Z,11.80
2018-09-12T08:23:08.627Z,13.03
2018-09-12T08:25:39.163Z,13.73
2018-09-12T08:28:09.807Z,11.17
2018-09-12T08:30:40.433Z,14.50
2018-09-12T08:33:11.104Z,15.43
2018-09-12T08:35:41.748Z,15.43
2018-09-12T08:38:12.612Z,16.30
2018-09-12T08:40:43.972Z,16.65
2018-09-12T08:43:16.044Z,16.73
2018-09-12T08:45:48.117Z,15.87
2018-09-12T08:48:19.352Z,13.43
2018-09-12T08:50:52.724Z,19.07
2018-09-12T08:53:24.400Z,14.47
2018-09-12T08:55:56.043Z,16.35
2018-09-12T08:58:27.854Z,17.57
2018-09-12T09:00:59.924Z,17.57
2018-09-12T09:03:33.210Z,17.57
2018-09-12T09:06:04.587Z,15.75
2018-09-12T09:08:36.085Z,12.98
2018-09-12T09:11:08.211Z,12.18
2018-09-12T09:13:39.943Z,11.95
2018-09-12T09:16:11.758Z,15.35
2018-09-12T09:18:43.093Z,10.85
2018-09-12T09:21:15.349Z,13.65
2018-09-12T09:23:48.609Z,15.60
2018-09-12T09:26:20.780Z,13.53
2018-09-12T09:28:53.596Z,14.87
2018-09-12T09:31:24.551Z,16.12
2018-09-12T09:33:57.159Z,15.20
2018-09-12T09:36:44.283Z,15.40
2018-09-12T09:53:09.500Z,11.65
2018-09-12T09:55:40.168Z,9.83
2018-09-12T09:58:10.890Z,13.98
2018-09-12T10:00:46.525Z,12.35
2018-09-12T10:03:22.286Z,12.03
2018-09-12T10:05:57.791Z,11.03
2018-09-12T10:08:31.955Z,11.68
2018-09-12T10:11:02.537Z,11.18
2018-09-12T10:13:33.088Z,11.48
2018-09-12T10:16:03.761Z,10.40
2018-09-12T10:18:34.369Z,8.40
2018-09-12T10:21:05.025Z,9.88
2018-09-12T10:23:35.625Z,8.73
2018-09-12T10:26:06.267Z,8.18
2018-09-12T10:28:36.656Z,8.25
2018-09-12T10:31:07.289Z,9.48
2018-09-12T10:33:37.789Z,8.25
2018-09-12T10:36:08.422Z,11.10
2018-09-12T10:38:38.883Z,31.23
2018-09-12T10:41:12.392Z,9.45
2018-09-12T10:43:42.939Z,9.30
2018-09-12T10:46:13.418Z,9.33
2018-09-12T10:48:43.909Z,7.55
2018-09-12T10:51:14.662Z,16.35
2018-09-12T10:53:45.182Z,8.95
2018-09-12T10:56:15.987Z,8.00
2018-09-12T10:58:46.491Z,8.80
2018-09-12T11:01:17.068Z,8.73
2018-09-12T11:03:47.946Z,10.30
2018-09-12T11:06:18.586Z,7.25
2018-09-12T11:08:49.179Z,6.45
2018-09-12T11:11:19.849Z,5.72
2018-09-12T11:13:50.563Z,8.60
2018-09-12T11:16:21.251Z,5.37
2018-09-12T11:18:51.831Z,4.73
2018-09-12T11:21:22.468Z,5.03
2018-09-12T11:23:53.239Z,5.03
2018-09-12T11:26:23.829Z,5.30
2018-09-12T11:28:54.459Z,10.90
2018-09-12T11:31:25.070Z,3.33
2018-09-12T11:33:55.591Z,4.03
2018-09-12T11:36:26.299Z,3.97
2018-09-12T11:38:56.837Z,4.20
2018-09-12T11:41:27.480Z,8.67
2018-09-12T11:43:58.047Z,2.97
2018-09-12T11:46:28.623Z,4.63
2018-09-12T11:48:59.284Z,3.60
2018-09-12T11:51:29.894Z,3.23
2018-09-12T11:54:00.412Z,3.33
2018-09-12T11:56:30.936Z,3.00
2018-09-12T11:59:01.438Z,3.23
2018-09-12T12:01:32.031Z,4.50
2018-09-12T12:04:02.610Z,3.43
2018-09-12T12:06:37.629Z,2.90
2018-09-12T12:09:11.291Z,2.63
2018-09-12T12:11:42.275Z,4.43
2018-09-12T12:14:12.779Z,2.30
2018-09-12T12:16:43.594Z,2.50
2018-09-12T12:19:14.169Z,5.00
2018-09-12T12:21:44.698Z,4.97
2018-09-12T12:24:15.331Z,1.97
2018-09-12T12:26:45.998Z,30.07
2018-09-12T12:29:16.480Z,1.97
2018-09-12T12:31:47.018Z,2.17
2018-09-12T12:34:17.566Z,2.60
2018-09-12T12:36:48.198Z,2.73
2018-09-12T12:39:18.760Z,2.63
2018-09-12T12:41:49.345Z,2.37
2018-09-12T12:44:19.882Z,4.07
2018-09-12T12:46:50.661Z,3.50
2018-09-12T12:49:21.324Z,4.40
2018-09-12T12:51:52.127Z,6.60
2018-09-12T12:54:22.651Z,4.23
2018-09-12T12:56:53.192Z,3.83
2018-09-12T12:59:23.798Z,4.07
2018-09-12T13:01:54.400Z,4.67
2018-09-12T13:04:25.108Z,6.40
2018-09-12T13:06:55.771Z,4.87
2018-09-12T13:09:26.308Z,5.47
2018-09-12T13:11:56.868Z,4.03
2018-09-12T13:14:31.041Z,6.87
2018-09-12T13:17:01.760Z,6.00
2018-09-12T13:19:32.175Z,5.93
2018-09-12T13:22:03.157Z,6.63
2018-09-12T13:24:33.744Z,3.50
2018-09-12T13:27:05.278Z,5.97
2018-09-12T13:29:35.908Z,4.70
2018-09-12T13:32:06.579Z,3.23
2018-09-12T13:34:37.153Z,5.57
2018-09-12T13:37:07.741Z,3.90
2018-09-12T13:39:38.265Z,3.87
2018-09-12T13:42:09.081Z,3.03
2018-09-12T13:44:39.625Z,3.20
2018-09-12T13:47:10.305Z,4.77
2018-09-12T13:49:40.843Z,3.27
2018-09-12T13:52:11.449Z,4.60
2018-09-12T13:54:41.961Z,2.73
2018-09-12T13:57:14.411Z,3.00
2018-09-12T13:59:45.352Z,3.57
2018-09-12T14:02:16.227Z,3.77
2018-09-12T14:04:46.722Z,3.90
2018-09-12T14:07:17.285Z,4.97
2018-09-12T14:09:47.801Z,6.33
2018-09-12T14:12:18.446Z,3.47
2018-09-12T14:14:49.039Z,5.37
2018-09-12T14:17:19.909Z,4.20
2018-09-12T14:19:50.541Z,4.40
2018-09-12T14:22:21.182Z,4.20
2018-09-12T14:24:51.786Z,5.63
2018-09-12T14:27:22.520Z,7.43
2018-09-12T14:29:53.065Z,5.23
2018-09-12T14:32:23.649Z,6.37
2018-09-12T14:34:54.157Z,6.57
2018-09-12T14:37:24.809Z,4.63
2018-09-12T14:39:55.480Z,4.40
2018-09-12T14:42:27.139Z,7.53
2018-09-12T14:44:57.716Z,6.50
2018-09-12T14:47:28.302Z,8.53
2018-09-12T14:49:58.968Z,6.77
2018-09-12T14:52:29.568Z,4.47
2018-09-12T14:55:00.250Z,7.50
2018-09-12T14:57:30.851Z,6.23
2018-09-12T15:00:01.849Z,8.30
2018-09-12T15:02:32.386Z,7.47
2018-09-12T15:05:02.942Z,7.20
2018-09-12T15:07:33.675Z,6.40
2018-09-12T15:10:04.345Z,5.83
2018-09-12T15:12:34.869Z,5.40
2018-09-12T15:15:05.463Z,5.17
2018-09-12T15:17:36.012Z,7.30
2018-09-12T15:20:06.894Z,5.47
2018-09-12T15:22:37.442Z,5.23
2018-09-12T15:25:08.102Z,5.77
2018-09-12T15:27:38.785Z,5.03
2018-09-12T15:30:09.862Z,4.10
2018-09-12T15:32:40.901Z,4.47
2018-09-12T15:35:11.379Z,5.03
2018-09-12T15:37:41.946Z,6.10
2018-09-12T15:40:18.402Z,4.17
2018-09-12T15:42:49.569Z,4.67
2018-09-12T15:45:20.254Z,4.70
2018-09-12T15:47:50.985Z,4.13
2018-09-12T15:50:23.295Z,4.40
2018-09-12T15:52:54.674Z,4.83
2018-09-12T15:55:25.483Z,3.80
2018-09-12T15:57:56.660Z,4.40
2018-09-12T16:00:27.071Z,4.03
2018-09-12T16:02:58.316Z,5.03
2018-09-12T16:05:29.154Z,6.77
2018-09-12T16:07:59.818Z,4.13
2018-09-12T16:10:30.598Z,5.57
2018-09-12T16:13:02.530Z,5.47
2018-09-12T16:15:32.991Z,9.70
2018-09-12T16:18:03.574Z,7.13
2018-09-12T16:20:34.125Z,3.90
2018-09-12T16:23:04.740Z,4.63
2018-09-12T16:25:50.658Z,4.17
2018-09-12T16:31:36.898Z,9.07
2018-09-12T16:34:07.657Z,5.63
2018-09-12T16:36:38.200Z,3.93
2018-09-12T16:39:17.947Z,4.37
2018-09-12T16:41:52.782Z,3.37
2018-09-12T16:44:23.438Z,4.73
2018-09-12T16:46:54.126Z,3.77
2018-09-12T16:49:24.919Z,3.47
2018-09-12T16:51:55.488Z,4.10
2018-09-12T16:54:26.139Z,5.10
2018-09-12T16:56:56.942Z,6.53
2018-09-12T16:59:27.691Z,3.33
2018-09-12T17:01:58.312Z,4.47
2018-09-12T17:04:28.859Z,3.70
2018-09-12T17:06:59.357Z,5.03
2018-09-12T17:09:29.939Z,4.37
2018-09-12T17:12:00.467Z,3.87
2018-09-12T17:14:31.009Z,5.23
2018-09-12T17:17:01.576Z,7.97
2018-09-12T17:19:32.271Z,4.87
2018-09-12T17:22:02.831Z,5.03
2018-09-12T17:24:33.399Z,4.70
2018-09-12T17:27:04.128Z,7.17
2018-09-12T17:29:34.761Z,4.17
2018-09-12T17:32:05.310Z,5.17
2018-09-12T17:34:35.974Z,5.70
2018-09-12T17:37:06.643Z,3.90
2018-09-12T17:39:37.411Z,6.27
2018-09-12T17:42:08.014Z,7.20
2018-09-12T17:44:38.591Z,4.47
2018-09-12T17:47:09.179Z,4.77
2018-09-12T17:49:39.800Z,4.10
2018-09-12T17:52:10.344Z,5.40
2018-09-12T17:54:40.866Z,4.77
2018-09-12T17:57:11.420Z,5.37
2018-09-12T17:59:42.408Z,6.00
2018-09-12T18:02:13.106Z,5.20
2018-09-12T18:04:43.719Z,5.43
2018-09-12T18:07:14.268Z,5.67
2018-09-12T18:09:45.243Z,6.77
2018-09-12T18:12:15.820Z,3.93
2018-09-12T18:14:46.344Z,5.03
2018-09-12T18:17:17.398Z,4.90
2018-09-12T18:19:48.065Z,3.33
2018-09-12T18:22:18.659Z,8.40
2018-09-12T18:24:49.213Z,4.20
2018-09-12T18:27:19.782Z,3.40
2018-09-12T18:29:50.656Z,4.20
2018-09-12T18:32:21.163Z,3.87
2018-09-12T18:34:52.108Z,3.90
2018-09-12T18:37:22.641Z,4.63
2018-09-12T18:39:53.271Z,4.80
2018-09-12T18:42:23.838Z,4.13
2018-09-12T18:44:54.390Z,5.27
2018-09-12T18:47:24.897Z,4.63
2018-09-12T18:49:55.528Z,5.17
2018-09-12T18:52:26.887Z,5.55
2018-09-12T18:54:57.568Z,6.17
2018-09-12T18:57:28.128Z,5.50
2018-09-12T18:59:59.389Z,5.07
2018-09-12T19:02:30.059Z,4.40
2018-09-12T19:05:00.696Z,4.20
2018-09-12T19:07:31.287Z,4.40
2018-09-12T19:10:02.049Z,4.90
2018-09-12T19:12:32.666Z,4.08
2018-09-12T19:15:03.308Z,9.20
2018-09-12T19:17:34.002Z,6.67
2018-09-12T19:20:04.723Z,4.60
2018-09-12T19:22:35.196Z,4.23
2018-09-12T19:25:05.821Z,4.27
2018-09-12T19:27:36.252Z,4.37
2018-09-12T19:30:07.695Z,6.30
2018-09-12T19:32:38.354Z,5.50
2018-09-12T19:35:09.027Z,8.23
2018-09-12T19:37:39.833Z,6.73
2018-09-12T19:40:10.457Z,5.73
2018-09-12T19:42:41.079Z,5.77
2018-09-12T19:45:11.699Z,6.07
2018-09-12T19:47:42.321Z,6.97
2018-09-12T19:50:12.907Z,4.70
2018-09-12T19:52:43.547Z,7.20
2018-09-12T19:55:14.009Z,4.43
2018-09-12T19:57:44.617Z,5.60
2018-09-12T20:00:18.285Z,4.60
2018-09-12T20:02:48.998Z,4.93
2018-09-12T20:05:19.649Z,5.00
2018-09-12T20:07:50.148Z,4.00
2018-09-12T20:10:20.870Z,6.23
2018-09-12T20:12:51.483Z,6.77
2018-09-12T20:15:22.341Z,6.57
2018-09-12T20:17:52.924Z,6.47
2018-09-12T20:20:23.573Z,5.37
2018-09-12T20:23:00.769Z,6.23
2018-09-12T20:25:31.366Z,5.63
2018-09-12T20:28:01.910Z,5.53
2018-09-12T20:30:32.551Z,5.00
2018-09-12T20:33:03.100Z,5.00
2018-09-12T20:35:33.825Z,4.33
2018-09-12T20:38:04.473Z,7.83
2018-09-12T20:40:40.907Z,3.70
2018-09-12T20:43:11.469Z,8.03
2018-09-12T20:45:42.187Z,4.47
2018-09-12T20:48:12.768Z,4.03
2018-09-12T20:50:43.351Z,6.10
2018-09-12T20:53:13.870Z,7.17
2018-09-12T20:55:44.504Z,4.33
2018-09-12T20:58:15.160Z,5.07
2018-09-12T21:00:45.825Z,6.13
2018-09-12T21:03:16.397Z,8.10
2018-09-12T21:05:47.070Z,6.10
2018-09-12T21:08:17.690Z,6.83
2018-09-12T21:10:48.371Z,9.13
2018-09-12T21:13:18.998Z,6.73
2018-09-12T21:15:49.583Z,7.70
2018-09-12T21:18:21.167Z,5.40
2018-09-12T21:20:51.695Z,8.70
2018-09-12T21:23:22.277Z,9.57
2018-09-12T21:25:52.887Z,4.90
2018-09-12T21:28:23.429Z,7.43
2018-09-12T21:30:54.078Z,7.17
2018-09-12T21:33:24.794Z,4.17
2018-09-12T21:35:55.638Z,4.50
2018-09-12T21:38:26.218Z,3.60
2018-09-12T21:40:56.864Z,6.03
2018-09-12T21:43:27.481Z,4.53
2018-09-12T21:45:58.998Z,5.13
2018-09-12T21:48:31.044Z,5.40
2018-09-12T21:51:01.603Z,3.33
2018-09-12T21:53:32.235Z,3.80
2018-09-12T21:56:02.809Z,5.00
2018-09-12T21:58:33.400Z,4.13
2018-09-12T22:01:03.998Z,3.20
2018-09-12T22:03:34.609Z,4.40
2018-09-12T22:06:05.540Z,5.60
2018-09-12T22:08:36.118Z,5.30
2018-09-12T22:11:06.689Z,5.10
2018-09-12T22:13:37.229Z,3.10
2018-09-12T22:16:07.860Z,8.53
2018-09-12T22:18:38.351Z,3.90
2018-09-12T22:21:08.958Z,4.47
2018-09-12T22:23:39.458Z,3.90
2018-09-12T22:26:10.284Z,3.30
2018-09-12T22:28:40.783Z,3.43
2018-09-12T22:31:11.299Z,4.80
2018-09-12T22:33:41.816Z,5.60
2018-09-12T22:36:12.422Z,5.13
2018-09-12T22:38:42.945Z,5.57
2018-09-12T22:41:14.018Z,3.90
2018-09-12T22:43:44.498Z,5.67
2018-09-12T22:46:15.083Z,4.03
2018-09-12T22:48:45.542Z,6.40
2018-09-12T22:51:16.128Z,3.23
2018-09-12T22:53:46.669Z,4.27
2018-09-12T22:56:17.241Z,4.20
2018-09-12T22:58:47.759Z,5.33
2018-09-12T23:01:18.674Z,6.67
2018-09-12T23:03:49.234Z,4.63
2018-09-12T23:06:19.778Z,5.00
2018-09-12T23:08:50.383Z,5.97
2018-09-12T23:11:20.979Z,8.07
2018-09-12T23:13:51.484Z,5.70
2018-09-12T23:16:21.998Z,5.13
2018-09-12T23:18:52.470Z,6.60
2018-09-12T23:21:23.324Z,6.90
2018-09-12T23:23:53.841Z,9.20
2018-09-12T23:26:24.413Z,8.07
2018-09-12T23:28:54.913Z,6.93
2018-09-12T23:31:25.485Z,9.53
2018-09-12T23:33:56.039Z,5.27
2018-09-12T23:36:26.961Z,7.83
2018-09-12T23:38:57.498Z,8.10
2018-09-12T23:41:28.138Z,8.27
2018-09-12T23:43:58.640Z,9.83
2018-09-12T23:46:29.239Z,8.97
2018-09-12T23:48:59.758Z,9.67
2018-09-12T23:51:33.374Z,8.70
2018-09-12T23:54:03.978Z,8.03
2018-09-12T23:56:34.851Z,8.17
2018-09-12T23:59:05.542Z,10.33
